sensor_id;sensor_type;location;lat;lon;timestamp;temperature;humidity
10294;DHT22;5192;50.328;7.610;2022-08-25T00:02:06;19.80;1.00
10294;DHT22;5192;50.328;7.610;2022-08-25T00:04:34;19.70;1.00
10294;DHT22;5192;50.328;7.610;2022-08-25T00:07:03;19.70;1.00
10294;DHT22;5192;50.328;7.610;2022-08-25T00:09:32;19.60;1.00
10294;DHT22;5192;50.328;7.610;2022-08-25T00:12:00;19.60;1.00
10294;DHT22;5192;50.328;7.610;2022-08-25T00:14:36;19.50;1.00
10294;DHT22;5192;50.328;7.610;2022-08-25T00:17:04;19.50;1.00
10294;DHT22;5192;50.328;7.610;2022-08-25T00:19:34;19.50;1.00
10294;DHT22;5192;50.328;7.610;2022-08-25T00:22:03;19.40;1.00
10294;DHT22;5192;50.328;7.610;2022-08-25T00:24:30;19.40;1.00
10294;DHT22;5192;50.328;7.610;2022-08-25T00:26:57;19.30;1.00
10294;DHT22;5192;50.328;7.610;2022-08-25T00:29:25;19.30;1.00
10294;DHT22;5192;50.328;7.610;2022-08-25T00:31:51;19.30;1.00
10294;DHT22;5192;50.328;7.610;2022-08-25T00:34:27;19.20;1.00
10294;DHT22;5192;50.328;7.610;2022-08-25T00:36:55;19.20;1.00
10294;DHT22;5192;50.328;7.610;2022-08-25T00:39:23;19.20;1.00
10294;DHT22;5192;50.328;7.610;2022-08-25T00:41:51;19.20;1.00
10294;DHT22;5192;50.328;7.610;2022-08-25T00:44:19;19.10;1.00
10294;DHT22;5192;50.328;7.610;2022-08-25T00:46:49;19.20;1.00
10294;DHT22;5192;50.328;7.610;2022-08-25T00:49:24;19.20;1.00
10294;DHT22;5192;50.328;7.610;2022-08-25T00:52:12;19.10;1.00
10294;DHT22;5192;50.328;7.610;2022-08-25T00:57:37;19.10;1.00
10294;DHT22;5192;50.328;7.610;2022-08-25T01:00:17;19.10;1.00
10294;DHT22;5192;50.328;7.610;2022-08-25T01:02:45;19.10;1.00
10294;DHT22;5192;50.328;7.610;2022-08-25T01:05:11;19.00;1.00
10294;DHT22;5192;50.328;7.610;2022-08-25T01:07:38;19.00;1.00
10294;DHT22;5192;50.328;7.610;2022-08-25T01:10:05;19.00;1.00
10294;DHT22;5192;50.328;7.610;2022-08-25T01:12:39;19.00;1.00
10294;DHT22;5192;50.328;7.610;2022-08-25T01:15:06;19.00;1.00
10294;DHT22;5192;50.328;7.610;2022-08-25T01:17:48;18.90;1.00
10294;DHT22;5192;50.328;7.610;2022-08-25T01:20:16;18.90;1.00
10294;DHT22;5192;50.328;7.610;2022-08-25T01:22:46;18.90;1.00
10294;DHT22;5192;50.328;7.610;2022-08-25T01:26:04;18.90;1.00
10294;DHT22;5192;50.328;7.610;2022-08-25T01:28:26;18.80;1.00
10294;DHT22;5192;50.328;7.610;2022-08-25T01:30:53;18.80;1.00
10294;DHT22;5192;50.328;7.610;2022-08-25T01:33:21;18.80;1.00
10294;DHT22;5192;50.328;7.610;2022-08-25T01:35:48;18.80;1.00
10294;DHT22;5192;50.328;7.610;2022-08-25T01:38:15;18.70;1.00
10294;DHT22;5192;50.328;7.610;2022-08-25T01:40:43;18.70;1.00
10294;DHT22;5192;50.328;7.610;2022-08-25T01:43:35;18.60;1.00
10294;DHT22;5192;50.328;7.610;2022-08-25T01:46:03;18.60;1.00
10294;DHT22;5192;50.328;7.610;2022-08-25T01:48:29;18.60;1.00
10294;DHT22;5192;50.328;7.610;2022-08-25T01:50:59;18.50;1.00
10294;DHT22;5192;50.328;7.610;2022-08-25T01:53:30;18.50;1.00
10294;DHT22;5192;50.328;7.610;2022-08-25T01:55:56;18.50;1.00
10294;DHT22;5192;50.328;7.610;2022-08-25T01:58:40;18.50;1.00
10294;DHT22;5192;50.328;7.610;2022-08-25T02:01:13;18.50;1.00
10294;DHT22;5192;50.328;7.610;2022-08-25T02:03:43;18.60;1.00
10294;DHT22;5192;50.328;7.610;2022-08-25T02:06:16;18.50;1.00
10294;DHT22;5192;50.328;7.610;2022-08-25T02:08:43;18.50;1.00
10294;DHT22;5192;50.328;7.610;2022-08-25T02:11:12;18.50;1.00
10294;DHT22;5192;50.328;7.610;2022-08-25T02:13:42;18.60;1.00
10294;DHT22;5192;50.328;7.610;2022-08-25T02:16:10;18.50;1.00
10294;DHT22;5192;50.328;7.610;2022-08-25T02:18:40;18.40;1.00
10294;DHT22;5192;50.328;7.610;2022-08-25T02:21:06;18.40;1.30
10294;DHT22;5192;50.328;7.610;2022-08-25T02:23:34;18.30;3.20
10294;DHT22;5192;50.328;7.610;2022-08-25T02:26:02;18.30;5.00
10294;DHT22;5192;50.328;7.610;2022-08-25T02:28:30;18.20;8.10
10294;DHT22;5192;50.328;7.610;2022-08-25T02:30:57;18.10;10.40
10294;DHT22;5192;50.328;7.610;2022-08-25T02:33:25;18.10;13.00
10294;DHT22;5192;50.328;7.610;2022-08-25T02:35:55;18.10;15.60
10294;DHT22;5192;50.328;7.610;2022-08-25T02:38:22;18.00;17.90
10294;DHT22;5192;50.328;7.610;2022-08-25T02:40:48;18.00;20.90
10294;DHT22;5192;50.328;7.610;2022-08-25T02:43:17;18.00;25.60
10294;DHT22;5192;50.328;7.610;2022-08-25T02:45:43;17.90;27.00
10294;DHT22;5192;50.328;7.610;2022-08-25T02:48:10;17.80;29.40
10294;DHT22;5192;50.328;7.610;2022-08-25T02:50:36;17.80;36.20
10294;DHT22;5192;50.328;7.610;2022-08-25T02:53:03;17.80;36.20
10294;DHT22;5192;50.328;7.610;2022-08-25T02:55:29;17.80;49.50
10294;DHT22;5192;50.328;7.610;2022-08-25T02:57:56;17.70;57.90
10294;DHT22;5192;50.328;7.610;2022-08-25T03:00:24;17.70;65.90
10294;DHT22;5192;50.328;7.610;2022-08-25T03:02:50;17.70;68.00
10294;DHT22;5192;50.328;7.610;2022-08-25T03:05:17;17.60;69.60
10294;DHT22;5192;50.328;7.610;2022-08-25T03:07:44;17.60;95.90
10294;DHT22;5192;50.328;7.610;2022-08-25T03:10:15;17.60;99.90
10294;DHT22;5192;50.328;7.610;2022-08-25T03:12:43;17.50;99.90
10294;DHT22;5192;50.328;7.610;2022-08-25T03:15:15;17.50;99.90
10294;DHT22;5192;50.328;7.610;2022-08-25T03:17:46;17.50;99.90
10294;DHT22;5192;50.328;7.610;2022-08-25T03:20:16;17.40;99.90
10294;DHT22;5192;50.328;7.610;2022-08-25T03:22:43;17.40;99.90
10294;DHT22;5192;50.328;7.610;2022-08-25T03:25:14;17.40;99.90
10294;DHT22;5192;50.328;7.610;2022-08-25T03:28:00;17.40;99.90
10294;DHT22;5192;50.328;7.610;2022-08-25T03:30:27;17.30;99.90
10294;DHT22;5192;50.328;7.610;2022-08-25T03:32:54;17.30;99.90
10294;DHT22;5192;50.328;7.610;2022-08-25T03:35:21;17.20;99.90
10294;DHT22;5192;50.328;7.610;2022-08-25T03:37:47;17.20;99.90
10294;DHT22;5192;50.328;7.610;2022-08-25T03:40:14;17.20;99.90
10294;DHT22;5192;50.328;7.610;2022-08-25T03:42:45;17.30;99.90
10294;DHT22;5192;50.328;7.610;2022-08-25T03:45:12;17.20;99.90
10294;DHT22;5192;50.328;7.610;2022-08-25T03:47:39;17.20;99.90
10294;DHT22;5192;50.328;7.610;2022-08-25T03:50:09;17.20;99.90
10294;DHT22;5192;50.328;7.610;2022-08-25T03:52:36;17.20;99.90
10294;DHT22;5192;50.328;7.610;2022-08-25T03:55:06;17.20;99.90
10294;DHT22;5192;50.328;7.610;2022-08-25T03:57:34;17.20;99.90
10294;DHT22;5192;50.328;7.610;2022-08-25T04:00:04;17.20;99.90
10294;DHT22;5192;50.328;7.610;2022-08-25T04:02:31;17.20;99.90
10294;DHT22;5192;50.328;7.610;2022-08-25T04:04:58;17.20;99.90
10294;DHT22;5192;50.328;7.610;2022-08-25T04:07:24;17.20;99.90
10294;DHT22;5192;50.328;7.610;2022-08-25T04:09:53;17.10;99.90
10294;DHT22;5192;50.328;7.610;2022-08-25T04:12:21;17.10;99.90
10294;DHT22;5192;50.328;7.610;2022-08-25T04:14:48;17.10;99.90
10294;DHT22;5192;50.328;7.610;2022-08-25T04:17:16;17.10;99.90
10294;DHT22;5192;50.328;7.610;2022-08-25T04:19:43;17.10;99.90
10294;DHT22;5192;50.328;7.610;2022-08-25T04:22:10;17.00;99.90
10294;DHT22;5192;50.328;7.610;2022-08-25T04:24:37;17.00;99.90
10294;DHT22;5192;50.328;7.610;2022-08-25T04:27:06;17.00;99.90
10294;DHT22;5192;50.328;7.610;2022-08-25T04:29:32;16.90;99.90
10294;DHT22;5192;50.328;7.610;2022-08-25T04:31:59;16.90;99.90
10294;DHT22;5192;50.328;7.610;2022-08-25T04:34:26;16.90;99.90
10294;DHT22;5192;50.328;7.610;2022-08-25T04:36:53;16.90;99.90
10294;DHT22;5192;50.328;7.610;2022-08-25T04:39:21;16.90;99.90
10294;DHT22;5192;50.328;7.610;2022-08-25T04:41:48;16.90;99.90
10294;DHT22;5192;50.328;7.610;2022-08-25T04:44:16;16.90;99.90
10294;DHT22;5192;50.328;7.610;2022-08-25T04:46:43;16.90;99.90
10294;DHT22;5192;50.328;7.610;2022-08-25T04:49:11;16.80;99.90
10294;DHT22;5192;50.328;7.610;2022-08-25T04:51:39;16.90;99.90
10294;DHT22;5192;50.328;7.610;2022-08-25T04:54:09;16.90;99.90
10294;DHT22;5192;50.328;7.610;2022-08-25T04:56:39;16.90;99.90
10294;DHT22;5192;50.328;7.610;2022-08-25T04:59:08;16.90;99.90
10294;DHT22;5192;50.328;7.610;2022-08-25T05:01:35;16.90;99.90
10294;DHT22;5192;50.328;7.610;2022-08-25T05:04:07;17.00;99.90
10294;DHT22;5192;50.328;7.610;2022-08-25T05:06:33;17.00;99.90
10294;DHT22;5192;50.328;7.610;2022-08-25T05:09:11;17.00;99.90
10294;DHT22;5192;50.328;7.610;2022-08-25T05:11:38;17.10;99.90
10294;DHT22;5192;50.328;7.610;2022-08-25T05:14:05;17.10;99.90
10294;DHT22;5192;50.328;7.610;2022-08-25T05:16:37;17.20;99.90
10294;DHT22;5192;50.328;7.610;2022-08-25T05:19:05;17.20;99.90
10294;DHT22;5192;50.328;7.610;2022-08-25T05:21:31;17.20;99.90
10294;DHT22;5192;50.328;7.610;2022-08-25T05:23:58;17.20;99.90
10294;DHT22;5192;50.328;7.610;2022-08-25T05:26:27;17.20;99.90
10294;DHT22;5192;50.328;7.610;2022-08-25T05:28:56;17.20;99.90
10294;DHT22;5192;50.328;7.610;2022-08-25T05:31:27;17.20;99.90
10294;DHT22;5192;50.328;7.610;2022-08-25T05:33:54;17.20;99.90
10294;DHT22;5192;50.328;7.610;2022-08-25T05:36:21;17.20;99.90
10294;DHT22;5192;50.328;7.610;2022-08-25T05:38:49;17.20;99.90
10294;DHT22;5192;50.328;7.610;2022-08-25T05:41:18;17.10;99.90
10294;DHT22;5192;50.328;7.610;2022-08-25T05:43:47;17.10;99.90
10294;DHT22;5192;50.328;7.610;2022-08-25T05:46:16;17.10;99.90
10294;DHT22;5192;50.328;7.610;2022-08-25T05:48:42;17.10;99.90
10294;DHT22;5192;50.328;7.610;2022-08-25T05:51:11;17.10;99.90
10294;DHT22;5192;50.328;7.610;2022-08-25T05:53:40;17.20;99.90
10294;DHT22;5192;50.328;7.610;2022-08-25T05:56:09;17.10;99.90
10294;DHT22;5192;50.328;7.610;2022-08-25T05:58:40;17.30;99.90
10294;DHT22;5192;50.328;7.610;2022-08-25T06:01:07;17.30;99.90
10294;DHT22;5192;50.328;7.610;2022-08-25T06:03:53;17.30;99.90
10294;DHT22;5192;50.328;7.610;2022-08-25T06:06:21;17.40;99.90
10294;DHT22;5192;50.328;7.610;2022-08-25T06:08:48;17.50;99.90
10294;DHT22;5192;50.328;7.610;2022-08-25T06:11:15;17.50;99.90
10294;DHT22;5192;50.328;7.610;2022-08-25T06:13:42;17.60;99.90
10294;DHT22;5192;50.328;7.610;2022-08-25T06:16:08;17.60;99.90
10294;DHT22;5192;50.328;7.610;2022-08-25T06:18:35;17.70;99.90
10294;DHT22;5192;50.328;7.610;2022-08-25T06:21:16;17.80;99.90
10294;DHT22;5192;50.328;7.610;2022-08-25T06:23:43;17.90;99.90
10294;DHT22;5192;50.328;7.610;2022-08-25T06:26:11;18.10;99.90
10294;DHT22;5192;50.328;7.610;2022-08-25T06:28:38;18.30;99.90
10294;DHT22;5192;50.328;7.610;2022-08-25T06:31:03;18.40;99.90
10294;DHT22;5192;50.328;7.610;2022-08-25T06:33:30;18.50;99.90
10294;DHT22;5192;50.328;7.610;2022-08-25T06:35:58;18.60;99.90
10294;DHT22;5192;50.328;7.610;2022-08-25T06:38:26;18.70;99.90
10294;DHT22;5192;50.328;7.610;2022-08-25T06:40:51;18.80;99.90
10294;DHT22;5192;50.328;7.610;2022-08-25T06:43:20;19.00;99.90
10294;DHT22;5192;50.328;7.610;2022-08-25T06:45:46;19.20;99.90
10294;DHT22;5192;50.328;7.610;2022-08-25T06:48:14;19.10;99.90
10294;DHT22;5192;50.328;7.610;2022-08-25T06:50:42;19.20;99.90
10294;DHT22;5192;50.328;7.610;2022-08-25T06:53:11;19.30;99.90
10294;DHT22;5192;50.328;7.610;2022-08-25T06:55:38;19.40;99.90
10294;DHT22;5192;50.328;7.610;2022-08-25T06:58:06;19.50;99.90
10294;DHT22;5192;50.328;7.610;2022-08-25T07:00:35;19.60;99.90
10294;DHT22;5192;50.328;7.610;2022-08-25T07:03:01;19.80;99.90
10294;DHT22;5192;50.328;7.610;2022-08-25T07:05:31;19.90;99.90
10294;DHT22;5192;50.328;7.610;2022-08-25T07:07:57;20.00;99.90
10294;DHT22;5192;50.328;7.610;2022-08-25T07:10:26;20.20;99.90
10294;DHT22;5192;50.328;7.610;2022-08-25T07:12:55;20.20;99.90
10294;DHT22;5192;50.328;7.610;2022-08-25T07:15:22;20.30;96.80
10294;DHT22;5192;50.328;7.610;2022-08-25T07:17:50;20.40;85.00
10294;DHT22;5192;50.328;7.610;2022-08-25T07:20:19;20.60;69.20
10294;DHT22;5192;50.328;7.610;2022-08-25T07:22:48;20.70;58.00
10294;DHT22;5192;50.328;7.610;2022-08-25T07:25:15;20.90;51.30
10294;DHT22;5192;50.328;7.610;2022-08-25T07:27:42;21.00;46.50
10294;DHT22;5192;50.328;7.610;2022-08-25T07:30:09;21.10;49.20
10294;DHT22;5192;50.328;7.610;2022-08-25T07:32:36;21.20;44.40
10294;DHT22;5192;50.328;7.610;2022-08-25T07:35:03;21.20;44.00
10294;DHT22;5192;50.328;7.610;2022-08-25T07:37:52;21.40;43.70
10294;DHT22;5192;50.328;7.610;2022-08-25T07:40:28;21.50;36.30
10294;DHT22;5192;50.328;7.610;2022-08-25T07:42:59;21.60;34.00
10294;DHT22;5192;50.328;7.610;2022-08-25T07:45:28;21.80;31.60
10294;DHT22;5192;50.328;7.610;2022-08-25T07:48:19;21.90;26.50
10294;DHT22;5192;50.328;7.610;2022-08-25T07:50:46;22.10;25.00
10294;DHT22;5192;50.328;7.610;2022-08-25T07:53:15;22.20;24.50
10294;DHT22;5192;50.328;7.610;2022-08-25T07:55:42;22.30;25.30
10294;DHT22;5192;50.328;7.610;2022-08-25T07:58:11;22.40;21.30
10294;DHT22;5192;50.328;7.610;2022-08-25T08:00:37;22.50;20.40
10294;DHT22;5192;50.328;7.610;2022-08-25T08:03:08;22.70;17.50
10294;DHT22;5192;50.328;7.610;2022-08-25T08:05:35;22.80;15.50
10294;DHT22;5192;50.328;7.610;2022-08-25T08:08:03;23.00;15.50
10294;DHT22;5192;50.328;7.610;2022-08-25T08:10:29;23.10;11.10
10294;DHT22;5192;50.328;7.610;2022-08-25T08:12:56;23.20;10.40
10294;DHT22;5192;50.328;7.610;2022-08-25T08:15:22;23.30;8.20
10294;DHT22;5192;50.328;7.610;2022-08-25T08:17:49;23.40;7.10
10294;DHT22;5192;50.328;7.610;2022-08-25T08:20:15;23.50;6.60
10294;DHT22;5192;50.328;7.610;2022-08-25T08:22:44;23.60;7.10
10294;DHT22;5192;50.328;7.610;2022-08-25T08:25:11;23.60;1.20
10294;DHT22;5192;50.328;7.610;2022-08-25T08:27:38;23.80;1.00
10294;DHT22;5192;50.328;7.610;2022-08-25T08:30:05;23.80;1.00
10294;DHT22;5192;50.328;7.610;2022-08-25T08:32:32;24.00;1.00
10294;DHT22;5192;50.328;7.610;2022-08-25T08:34:58;24.00;1.00
10294;DHT22;5192;50.328;7.610;2022-08-25T08:37:26;24.10;1.00
10294;DHT22;5192;50.328;7.610;2022-08-25T08:39:54;24.20;1.00
10294;DHT22;5192;50.328;7.610;2022-08-25T08:42:45;24.30;1.00
10294;DHT22;5192;50.328;7.610;2022-08-25T08:45:47;24.40;1.00
10294;DHT22;5192;50.328;7.610;2022-08-25T08:48:48;24.40;1.00
10294;DHT22;5192;50.328;7.610;2022-08-25T08:51:41;24.60;1.00
10294;DHT22;5192;50.328;7.610;2022-08-25T08:54:13;24.70;1.00
10294;DHT22;5192;50.328;7.610;2022-08-25T08:56:47;24.80;1.00
10294;DHT22;5192;50.328;7.610;2022-08-25T08:59:38;24.90;1.00
10294;DHT22;5192;50.328;7.610;2022-08-25T09:02:13;25.00;1.00
10294;DHT22;5192;50.328;7.610;2022-08-25T09:04:45;25.10;1.00
10294;DHT22;5192;50.328;7.610;2022-08-25T09:07:20;25.20;1.00
10294;DHT22;5192;50.328;7.610;2022-08-25T09:09:49;25.30;1.00
10294;DHT22;5192;50.328;7.610;2022-08-25T09:15:35;25.40;1.00
10294;DHT22;5192;50.328;7.610;2022-08-25T09:19:12;25.60;1.00
10294;DHT22;5192;50.328;7.610;2022-08-25T09:22:30;25.70;1.00
10294;DHT22;5192;50.328;7.610;2022-08-25T09:30:21;26.10;1.00
10294;DHT22;5192;50.328;7.610;2022-08-25T09:32:53;26.20;1.00
10294;DHT22;5192;50.328;7.610;2022-08-25T09:35:28;26.30;1.00
10294;DHT22;5192;50.328;7.610;2022-08-25T09:38:08;26.50;1.00
10294;DHT22;5192;50.328;7.610;2022-08-25T09:40:41;26.60;1.00
10294;DHT22;5192;50.328;7.610;2022-08-25T09:43:35;26.70;1.00
10294;DHT22;5192;50.328;7.610;2022-08-25T09:46:31;26.70;1.00
10294;DHT22;5192;50.328;7.610;2022-08-25T09:49:11;26.90;1.00
10294;DHT22;5192;50.328;7.610;2022-08-25T09:51:39;27.00;1.00
10294;DHT22;5192;50.328;7.610;2022-08-25T09:54:30;27.10;1.00
10294;DHT22;5192;50.328;7.610;2022-08-25T09:57:00;27.20;1.00
10294;DHT22;5192;50.328;7.610;2022-08-25T09:59:52;27.30;1.00
10294;DHT22;5192;50.328;7.610;2022-08-25T10:02:32;27.40;1.00
10294;DHT22;5192;50.328;7.610;2022-08-25T10:04:58;27.40;1.00
10294;DHT22;5192;50.328;7.610;2022-08-25T10:07:58;27.60;1.00
10294;DHT22;5192;50.328;7.610;2022-08-25T10:10:45;27.40;1.00
10294;DHT22;5192;50.328;7.610;2022-08-25T10:13:20;27.60;1.00
10294;DHT22;5192;50.328;7.610;2022-08-25T10:16:18;27.60;1.00
10294;DHT22;5192;50.328;7.610;2022-08-25T10:19:08;27.80;1.00
10294;DHT22;5192;50.328;7.610;2022-08-25T10:21:37;28.00;1.00
10294;DHT22;5192;50.328;7.610;2022-08-25T10:24:09;28.10;1.00
10294;DHT22;5192;50.328;7.610;2022-08-25T10:35:30;28.70;1.00
10294;DHT22;5192;50.328;7.610;2022-08-25T10:38:48;28.90;1.00
10294;DHT22;5192;50.328;7.610;2022-08-25T10:47:48;29.10;1.00
10294;DHT22;5192;50.328;7.610;2022-08-25T11:04:42;29.90;1.00
10294;DHT22;5192;50.328;7.610;2022-08-25T11:07:30;30.00;1.00
10294;DHT22;5192;50.328;7.610;2022-08-25T11:10:14;30.10;1.00
10294;DHT22;5192;50.328;7.610;2022-08-25T11:12:53;30.10;1.00
10294;DHT22;5192;50.328;7.610;2022-08-25T11:18:13;30.30;1.00
10294;DHT22;5192;50.328;7.610;2022-08-25T11:21:06;30.40;1.00
10294;DHT22;5192;50.328;7.610;2022-08-25T11:26:37;30.50;1.00
10294;DHT22;5192;50.328;7.610;2022-08-25T11:29:29;30.70;1.00
10294;DHT22;5192;50.328;7.610;2022-08-25T11:31:59;30.90;1.00
10294;DHT22;5192;50.328;7.610;2022-08-25T11:34:31;30.90;1.00
10294;DHT22;5192;50.328;7.610;2022-08-25T11:37:02;31.00;1.00
10294;DHT22;5192;50.328;7.610;2022-08-25T11:43:23;31.00;1.00
10294;DHT22;5192;50.328;7.610;2022-08-25T11:51:48;31.30;1.00
10294;DHT22;5192;50.328;7.610;2022-08-25T11:57:23;31.50;1.00
10294;DHT22;5192;50.328;7.610;2022-08-25T12:06:30;31.50;1.00
10294;DHT22;5192;50.328;7.610;2022-08-25T12:09:22;31.60;1.00
10294;DHT22;5192;50.328;7.610;2022-08-25T12:12:26;31.90;1.00
10294;DHT22;5192;50.328;7.610;2022-08-25T12:14:50;32.10;1.00
10294;DHT22;5192;50.328;7.610;2022-08-25T12:17:25;31.70;1.00
10294;DHT22;5192;50.328;7.610;2022-08-25T12:20:02;31.50;1.00
10294;DHT22;5192;50.328;7.610;2022-08-25T12:22:40;31.70;1.00
10294;DHT22;5192;50.328;7.610;2022-08-25T12:25:31;31.80;1.00
10294;DHT22;5192;50.328;7.610;2022-08-25T12:37:28;32.40;1.00
10294;DHT22;5192;50.328;7.610;2022-08-25T12:40:02;32.30;1.00
10294;DHT22;5192;50.328;7.610;2022-08-25T12:42:40;32.50;1.00
10294;DHT22;5192;50.328;7.610;2022-08-25T12:45:31;32.60;1.00
10294;DHT22;5192;50.328;7.610;2022-08-25T12:51:07;32.70;1.00
10294;DHT22;5192;50.328;7.610;2022-08-25T12:54:25;32.80;1.00
10294;DHT22;5192;50.328;7.610;2022-08-25T12:56:59;32.90;1.00
10294;DHT22;5192;50.328;7.610;2022-08-25T12:59:48;33.00;1.00
10294;DHT22;5192;50.328;7.610;2022-08-25T13:11:18;32.60;1.00
10294;DHT22;5192;50.328;7.610;2022-08-25T13:17:27;32.70;1.00
10294;DHT22;5192;50.328;7.610;2022-08-25T13:20:30;33.00;1.00
10294;DHT22;5192;50.328;7.610;2022-08-25T13:23:01;32.90;1.00
10294;DHT22;5192;50.328;7.610;2022-08-25T13:25:28;33.00;1.00
10294;DHT22;5192;50.328;7.610;2022-08-25T13:28:10;33.30;1.00
10294;DHT22;5192;50.328;7.610;2022-08-25T13:31:20;33.10;1.00
10294;DHT22;5192;50.328;7.610;2022-08-25T13:33:52;33.20;1.00
10294;DHT22;5192;50.328;7.610;2022-08-25T13:36:20;33.40;1.00
10294;DHT22;5192;50.328;7.610;2022-08-25T13:39:34;33.70;1.00
10294;DHT22;5192;50.328;7.610;2022-08-25T13:42:13;33.90;1.00
10294;DHT22;5192;50.328;7.610;2022-08-25T13:45:03;34.20;1.00
10294;DHT22;5192;50.328;7.610;2022-08-25T13:47:50;34.50;1.00
10294;DHT22;5192;50.328;7.610;2022-08-25T13:50:42;34.80;1.00
10294;DHT22;5192;50.328;7.610;2022-08-25T13:53:27;35.10;1.00
10294;DHT22;5192;50.328;7.610;2022-08-25T13:56:02;34.50;1.00
10294;DHT22;5192;50.328;7.610;2022-08-25T13:58:34;33.90;1.00
10294;DHT22;5192;50.328;7.610;2022-08-25T14:01:42;33.80;1.00
10294;DHT22;5192;50.328;7.610;2022-08-25T14:15:36;37.00;1.00
10294;DHT22;5192;50.328;7.610;2022-08-25T14:18:30;37.70;1.00
10294;DHT22;5192;50.328;7.610;2022-08-25T14:21:02;38.50;1.00
10294;DHT22;5192;50.328;7.610;2022-08-25T14:23:39;38.40;1.00
10294;DHT22;5192;50.328;7.610;2022-08-25T14:26:12;39.50;1.00
10294;DHT22;5192;50.328;7.610;2022-08-25T14:28:51;39.60;1.00
10294;DHT22;5192;50.328;7.610;2022-08-25T14:31:27;39.40;1.00
10294;DHT22;5192;50.328;7.610;2022-08-25T14:33:57;40.40;1.00
10294;DHT22;5192;50.328;7.610;2022-08-25T14:36:28;41.10;1.00
10294;DHT22;5192;50.328;7.610;2022-08-25T14:38:56;40.80;1.00
10294;DHT22;5192;50.328;7.610;2022-08-25T14:41:23;40.40;1.00
10294;DHT22;5192;50.328;7.610;2022-08-25T14:44:03;40.70;1.00
10294;DHT22;5192;50.328;7.610;2022-08-25T14:46:54;40.70;1.00
10294;DHT22;5192;50.328;7.610;2022-08-25T14:49:48;40.40;1.00
10294;DHT22;5192;50.328;7.610;2022-08-25T14:52:34;40.70;1.00
10294;DHT22;5192;50.328;7.610;2022-08-25T14:55:10;41.20;1.00
10294;DHT22;5192;50.328;7.610;2022-08-25T14:57:41;40.50;1.00
10294;DHT22;5192;50.328;7.610;2022-08-25T15:00:10;40.40;1.00
10294;DHT22;5192;50.328;7.610;2022-08-25T15:02:43;40.80;1.00
10294;DHT22;5192;50.328;7.610;2022-08-25T15:05:23;40.60;1.00
10294;DHT22;5192;50.328;7.610;2022-08-25T15:07:54;40.60;1.00
10294;DHT22;5192;50.328;7.610;2022-08-25T15:10:49;40.30;1.00
10294;DHT22;5192;50.328;7.610;2022-08-25T15:13:25;39.70;1.00
10294;DHT22;5192;50.328;7.610;2022-08-25T15:15:52;39.60;1.00
10294;DHT22;5192;50.328;7.610;2022-08-25T15:18:22;39.30;1.00
10294;DHT22;5192;50.328;7.610;2022-08-25T15:21:12;38.80;1.00
10294;DHT22;5192;50.328;7.610;2022-08-25T15:23:41;38.40;1.00
10294;DHT22;5192;50.328;7.610;2022-08-25T15:26:20;37.90;1.00
10294;DHT22;5192;50.328;7.610;2022-08-25T15:28:49;37.60;1.00
10294;DHT22;5192;50.328;7.610;2022-08-25T15:31:19;36.80;1.00
10294;DHT22;5192;50.328;7.610;2022-08-25T15:33:51;36.50;1.00
10294;DHT22;5192;50.328;7.610;2022-08-25T15:36:24;36.20;1.00
10294;DHT22;5192;50.328;7.610;2022-08-25T15:38:53;35.80;1.00
10294;DHT22;5192;50.328;7.610;2022-08-25T15:41:20;34.90;1.00
10294;DHT22;5192;50.328;7.610;2022-08-25T15:43:47;34.20;1.00
10294;DHT22;5192;50.328;7.610;2022-08-25T15:46:16;34.10;1.00
10294;DHT22;5192;50.328;7.610;2022-08-25T15:48:47;34.20;1.00
10294;DHT22;5192;50.328;7.610;2022-08-25T15:51:34;34.10;1.00
10294;DHT22;5192;50.328;7.610;2022-08-25T15:54:00;33.90;1.00
10294;DHT22;5192;50.328;7.610;2022-08-25T15:56:26;33.70;1.00
10294;DHT22;5192;50.328;7.610;2022-08-25T15:58:53;33.50;1.00
10294;DHT22;5192;50.328;7.610;2022-08-25T16:01:25;33.50;1.00
10294;DHT22;5192;50.328;7.610;2022-08-25T16:03:51;33.60;1.00
10294;DHT22;5192;50.328;7.610;2022-08-25T16:06:17;33.60;1.00
10294;DHT22;5192;50.328;7.610;2022-08-25T16:08:45;33.60;1.00
10294;DHT22;5192;50.328;7.610;2022-08-25T16:11:27;33.70;1.00
10294;DHT22;5192;50.328;7.610;2022-08-25T16:14:04;33.70;1.00
10294;DHT22;5192;50.328;7.610;2022-08-25T16:16:34;33.80;1.00
10294;DHT22;5192;50.328;7.610;2022-08-25T16:19:02;33.90;1.00
10294;DHT22;5192;50.328;7.610;2022-08-25T16:21:34;34.00;1.00
10294;DHT22;5192;50.328;7.610;2022-08-25T16:24:10;34.30;1.00
10294;DHT22;5192;50.328;7.610;2022-08-25T16:26:37;34.80;1.00
10294;DHT22;5192;50.328;7.610;2022-08-25T16:29:08;35.50;1.00
10294;DHT22;5192;50.328;7.610;2022-08-25T16:31:43;36.00;1.00
10294;DHT22;5192;50.328;7.610;2022-08-25T16:34:21;36.00;1.00
10294;DHT22;5192;50.328;7.610;2022-08-25T16:36:48;35.90;1.00
10294;DHT22;5192;50.328;7.610;2022-08-25T16:39:17;36.50;1.00
10294;DHT22;5192;50.328;7.610;2022-08-25T16:41:50;36.70;1.00
10294;DHT22;5192;50.328;7.610;2022-08-25T16:44:22;36.90;1.00
10294;DHT22;5192;50.328;7.610;2022-08-25T16:46:50;35.20;1.00
10294;DHT22;5192;50.328;7.610;2022-08-25T16:49:22;35.20;1.00
10294;DHT22;5192;50.328;7.610;2022-08-25T16:51:51;35.20;1.00
10294;DHT22;5192;50.328;7.610;2022-08-25T16:55:01;34.90;1.00
10294;DHT22;5192;50.328;7.610;2022-08-25T16:57:52;34.60;1.00
10294;DHT22;5192;50.328;7.610;2022-08-25T17:00:42;34.10;1.00
10294;DHT22;5192;50.328;7.610;2022-08-25T17:03:09;34.20;1.00
10294;DHT22;5192;50.328;7.610;2022-08-25T17:05:41;34.10;1.00
10294;DHT22;5192;50.328;7.610;2022-08-25T17:08:08;33.90;1.00
10294;DHT22;5192;50.328;7.610;2022-08-25T17:13:53;33.50;1.00
10294;DHT22;5192;50.328;7.610;2022-08-25T17:16:23;33.10;1.00
10294;DHT22;5192;50.328;7.610;2022-08-25T17:18:53;32.80;1.00
10294;DHT22;5192;50.328;7.610;2022-08-25T17:21:21;32.60;1.00
10294;DHT22;5192;50.328;7.610;2022-08-25T17:23:47;32.60;1.00
10294;DHT22;5192;50.328;7.610;2022-08-25T17:26:15;32.60;1.00
10294;DHT22;5192;50.328;7.610;2022-08-25T17:28:42;32.30;1.00
10294;DHT22;5192;50.328;7.610;2022-08-25T17:31:10;32.40;1.00
10294;DHT22;5192;50.328;7.610;2022-08-25T17:33:37;32.30;1.00
10294;DHT22;5192;50.328;7.610;2022-08-25T17:36:03;32.20;1.00
10294;DHT22;5192;50.328;7.610;2022-08-25T17:38:30;31.90;1.00
10294;DHT22;5192;50.328;7.610;2022-08-25T17:40:59;31.90;1.00
10294;DHT22;5192;50.328;7.610;2022-08-25T17:43:28;31.60;1.00
10294;DHT22;5192;50.328;7.610;2022-08-25T17:45:56;31.50;1.00
10294;DHT22;5192;50.328;7.610;2022-08-25T17:48:25;31.30;1.00
10294;DHT22;5192;50.328;7.610;2022-08-25T17:50:50;31.10;1.00
10294;DHT22;5192;50.328;7.610;2022-08-25T17:53:18;30.90;1.00
10294;DHT22;5192;50.328;7.610;2022-08-25T17:55:46;30.70;1.00
10294;DHT22;5192;50.328;7.610;2022-08-25T17:58:14;30.60;1.00
10294;DHT22;5192;50.328;7.610;2022-08-25T18:00:42;30.40;1.00
10294;DHT22;5192;50.328;7.610;2022-08-25T18:03:10;30.30;1.00
10294;DHT22;5192;50.328;7.610;2022-08-25T18:05:36;30.10;1.00
10294;DHT22;5192;50.328;7.610;2022-08-25T18:08:04;29.90;1.00
10294;DHT22;5192;50.328;7.610;2022-08-25T18:10:31;29.70;1.00
10294;DHT22;5192;50.328;7.610;2022-08-25T18:12:58;29.50;1.00
10294;DHT22;5192;50.328;7.610;2022-08-25T18:15:27;29.30;1.00
10294;DHT22;5192;50.328;7.610;2022-08-25T18:17:53;29.10;1.00
10294;DHT22;5192;50.328;7.610;2022-08-25T18:20:21;29.00;1.00